Terminal Aerodrome Forecast
Issued by NWS Charleston, WV

Current Version | Previous Version | Graphics & Text | Print | Product List | Glossary On
Versions: 1 2 3 4 5 6 7 8 9 10 11 12 13 14 15 16 17 18 19 20 21 22 23 24
610
FTUS41 KRLX 212021 AAB
TAFHTS
TAF AMD
KHTS 212021Z 2120/2218 34012KT P6SM OVC035
     FM212200 33007KT P6SM OVC025
     FM220200 32005KT P6SM OVC040
     FM220500 VRB03KT 5SM BR BKN060
     FM221300 VRB03KT 6SM BR SCT060
     FM221600 34007KT P6SM BKN060=

USA.gov is the U.S. government's official web portal to all federal, state and local government web resources and services.